Time;durP1;ratioP1;P1;durP2;ratioP2;P2;SDS_P1;SDS_P2;PMS_P1;PMS_P2;Temp;Humidity;BMP_temperature;BMP_pressure;BME280_temperature;BME280_humidity;BME280_pressure;Samples;Min_cycle;Max_cycle;Signal;HPM_P1;HPM_P2
2020/12/19 08:22:10;;;;;;;8.10;2.27;;;9.80;99.90;;;;;;4977698;23;20322;-71
2020/12/19 08:24:36;;;;;;;5.27;2.10;;;9.90;99.90;;;;;;4955510;29;20670;-70
2020/12/19 08:27:43;;;;;;;4.00;1.73;;;10.00;99.90;;;;;;4955675;29;20231;-70
2020/12/19 08:30:15;;;;;;;4.63;1.47;;;10.10;99.90;;;;;;4937450;29;20229;-74
2020/12/19 08:32:44;;;;;;;2.53;1.60;;;10.10;99.90;;;;;;4942434;29;20213;-74
2020/12/19 08:35:17;;;;;;;3.00;1.63;;;10.20;99.90;;;;;;4936339;29;20213;-76
2020/12/19 08:37:44;;;;;;;3.10;1.60;;;10.30;99.90;;;;;;4936374;29;20284;-75
2020/12/19 08:40:13;;;;;;;3.47;1.47;;;10.40;99.90;;;;;;4936236;29;20221;-75
2020/12/19 08:42:40;;;;;;;2.30;1.43;;;10.50;99.90;;;;;;4936315;29;20213;-76
2020/12/19 08:45:31;;;;;;;2.80;1.57;;;10.50;99.90;;;;;;4936698;29;20424;-76
2020/12/19 08:48:00;;;;;;;4.70;1.47;;;10.60;99.90;;;;;;4936415;29;20233;-76
2020/12/19 08:50:29;;;;;;;2.23;1.40;;;10.60;99.90;;;;;;4936596;29;20236;-75
2020/12/19 08:53:10;;;;;;;2.50;1.40;;;10.60;99.90;;;;;;4936041;29;20734;-75
2020/12/19 08:55:37;;;;;;;2.60;1.37;;;10.70;99.90;;;;;;4936323;29;20580;-74
2020/12/19 08:58:04;;;;;;;2.97;1.23;;;10.80;99.90;;;;;;4936196;29;20708;-73
2020/12/19 09:00:35;;;;;;;2.30;1.40;;;10.80;99.90;;;;;;4936254;29;20209;-73
2020/12/19 09:03:04;;;;;;;1.80;1.10;;;10.80;99.90;;;;;;4935765;29;20616;-73
2020/12/19 09:05:31;;;;;;;1.13;1.00;;;10.80;99.90;;;;;;4935822;29;20216;-72
2020/12/19 09:07:58;;;;;;;2.97;1.30;;;10.80;99.90;;;;;;4936129;29;20233;-74
2020/12/19 09:10:27;;;;;;;2.40;1.40;;;10.80;99.90;;;;;;4936311;29;20252;-72
2020/12/19 09:13:11;;;;;;;1.73;0.97;;;10.80;99.90;;;;;;4935991;29;20204;-72
2020/12/19 09:15:38;;;;;;;2.10;1.20;;;10.90;99.90;;;;;;4936077;29;20216;-72
2020/12/19 09:18:25;;;;;;;2.53;1.10;;;10.90;99.90;;;;;;4935794;29;20283;-72
2020/12/19 09:20:56;;;;;;;2.00;1.00;;;11.00;99.90;;;;;;4936094;29;20220;-73
2020/12/19 09:23:24;;;;;;;2.10;1.10;;;11.00;99.90;;;;;;4936025;29;20204;-73
2020/12/19 09:25:52;;;;;;;1.83;0.90;;;11.00;99.90;;;;;;4936007;29;20217;-72
2020/12/19 09:28:18;;;;;;;2.13;1.00;;;11.00;99.90;;;;;;4935182;29;20229;-73
2020/12/19 09:30:45;;;;;;;3.13;1.07;;;11.10;99.90;;;;;;4935703;29;20244;-77
2020/12/19 09:33:11;;;;;;;3.30;1.00;;;11.10;99.90;;;;;;4935675;29;20691;-76
2020/12/19 09:35:38;;;;;;;3.20;1.20;;;11.20;99.90;;;;;;4935858;29;20215;-76
2020/12/19 09:38:04;;;;;;;1.63;1.20;;;11.20;99.90;;;;;;4935536;29;20224;-76
2020/12/19 09:40:30;;;;;;;1.97;1.17;;;11.30;99.90;;;;;;4935530;29;20694;-74
2020/12/19 09:42:57;;;;;;;1.60;0.90;;;11.30;99.90;;;;;;4931900;29;20592;-71
2020/12/19 09:45:25;;;;;;;2.50;1.20;;;11.40;99.90;;;;;;4953508;29;20235;-77
2020/12/19 09:47:55;;;;;;;2.13;1.03;;;11.60;99.90;;;;;;4953212;29;20321;-76
2020/12/19 09:50:34;;;;;;;1.50;0.90;;;11.70;99.90;;;;;;4953884;29;20232;-77
2020/12/19 09:53:00;;;;;;;4.47;1.20;;;11.70;99.90;;;;;;4947630;28;20295;-74
2020/12/19 09:55:27;;;;;;;2.30;0.70;;;11.80;99.90;;;;;;4934879;29;20220;-77
2020/12/19 09:57:54;;;;;;;1.83;0.97;;;11.80;99.90;;;;;;4934668;29;20232;-75
2020/12/19 10:00:21;;;;;;;1.70;0.70;;;11.80;99.90;;;;;;4953040;28;20344;-81
2020/12/19 10:02:49;;;;;;;1.23;0.77;;;11.80;99.90;;;;;;4934665;29;20585;-76
2020/12/19 10:05:16;;;;;;;1.20;0.90;;;11.80;99.90;;;;;;4933509;29;20223;-79
2020/12/19 10:07:42;;;;;;;1.23;0.90;;;11.90;99.90;;;;;;4933632;29;20237;-77
2020/12/19 10:10:08;;;;;;;1.73;1.00;;;11.90;99.90;;;;;;4934107;29;20224;-76
2020/12/19 10:12:35;;;;;;;5.13;1.17;;;12.00;99.90;;;;;;4932755;29;20232;-72
2020/12/19 10:15:05;;;;;;;1.43;0.83;;;12.00;99.90;;;;;;4952456;29;20670;-72
2020/12/19 10:17:32;;;;;;;2.80;0.70;;;12.00;99.90;;;;;;4954393;29;20234;-69
2020/12/19 10:19:58;;;;;;;2.30;0.80;;;12.10;99.90;;;;;;4953514;29;20667;-68
2020/12/19 10:22:24;;;;;;;1.27;0.90;;;12.00;99.90;;;;;;4953509;29;20223;-71
2020/12/19 10:24:50;;;;;;;3.37;1.10;;;12.10;99.90;;;;;;4953363;29;20208;-72
2020/12/19 10:27:17;;;;;;;2.03;1.00;;;12.10;99.90;;;;;;4953916;29;20236;-73
2020/12/19 10:29:43;;;;;;;2.23;1.00;;;12.10;99.90;;;;;;4953776;29;20204;-72
2020/12/19 10:32:10;;;;;;;2.13;0.70;;;12.10;99.90;;;;;;4954454;29;20598;-71
2020/12/19 10:34:37;;;;;;;1.37;0.80;;;12.20;99.90;;;;;;4931055;29;20211;-71
2020/12/19 10:37:03;;;;;;;1.63;0.70;;;12.30;99.90;;;;;;4953697;29;20786;-72
2020/12/19 10:39:30;;;;;;;1.23;0.77;;;12.40;99.90;;;;;;4954791;28;20207;-73
2020/12/19 10:41:56;;;;;;;1.30;0.77;;;12.40;99.90;;;;;;4939222;29;20262;-74
2020/12/19 10:44:22;;;;;;;3.07;0.80;;;12.40;99.90;;;;;;4938221;29;20208;-78
2020/12/19 10:46:49;;;;;;;0.70;0.50;;;12.40;99.90;;;;;;4938805;29;20233;-75
2020/12/19 10:49:15;;;;;;;4.27;0.70;;;12.40;99.90;;;;;;4938181;29;20228;-75
2020/12/19 10:51:42;;;;;;;2.67;0.77;;;12.40;99.90;;;;;;4938413;29;20233;-75
2020/12/19 10:54:08;;;;;;;1.43;0.60;;;12.60;99.90;;;;;;4938696;29;20224;-77
2020/12/19 10:56:35;;;;;;;1.03;0.70;;;12.60;99.90;;;;;;4938723;29;20671;-82
2020/12/19 10:59:01;;;;;;;3.47;0.80;;;12.60;99.90;;;;;;4937911;29;20264;-72
2020/12/19 11:01:28;;;;;;;2.17;0.90;;;12.70;99.90;;;;;;4937403;29;20205;-71
2020/12/19 11:03:54;;;;;;;1.20;0.70;;;12.80;99.90;;;;;;4937703;29;20213;-74
2020/12/19 11:06:22;;;;;;;1.63;0.87;;;12.80;99.90;;;;;;4937503;29;20213;-75
2020/12/19 11:08:49;;;;;;;1.43;0.77;;;12.70;99.90;;;;;;4943819;29;20232;-74
2020/12/19 11:11:17;;;;;;;1.10;0.70;;;12.70;99.90;;;;;;4956929;29;20549;-74
2020/12/19 11:13:43;;;;;;;2.93;0.87;;;12.60;99.90;;;;;;4956092;29;20207;-74
2020/12/19 11:16:10;;;;;;;1.77;0.73;;;12.50;99.90;;;;;;4957187;29;20220;-74
2020/12/19 11:18:36;;;;;;;1.50;0.90;;;12.50;99.90;;;;;;4956405;28;20228;-74
2020/12/19 11:21:04;;;;;;;3.47;0.70;;;12.50;99.90;;;;;;4955819;29;20555;-72
2020/12/19 11:23:30;;;;;;;1.60;0.90;;;12.40;99.90;;;;;;4947060;29;20208;-72
2020/12/19 11:25:57;;;;;;;1.77;0.80;;;12.20;99.90;;;;;;4937132;29;20205;-72
2020/12/19 11:28:24;;;;;;;5.07;0.80;;;11.90;99.90;;;;;;4937062;29;20228;-75
2020/12/19 11:30:50;;;;;;;1.67;0.80;;;11.70;99.90;;;;;;4937864;29;20280;-75
2020/12/19 11:33:16;;;;;;;1.70;0.80;;;11.60;99.90;;;;;;4937695;29;20209;-73
2020/12/19 11:35:42;;;;;;;1.53;1.00;;;11.40;99.90;;;;;;4939612;29;20283;-74
2020/12/19 11:38:08;;;;;;;1.70;0.67;;;11.30;99.90;;;;;;4937440;29;20232;-70
2020/12/19 11:40:35;;;;;;;2.30;0.90;;;11.20;99.90;;;;;;4954844;29;20208;-80
2020/12/19 11:43:02;;;;;;;1.87;0.70;;;11.10;99.90;;;;;;4954722;29;20687;-78
2020/12/19 11:45:28;;;;;;;0.93;0.60;;;11.10;99.90;;;;;;4955327;29;20215;-75
2020/12/19 11:47:54;;;;;;;0.63;0.60;;;11.10;99.90;;;;;;4942339;29;20240;-75
2020/12/19 11:50:21;;;;;;;1.23;0.77;;;11.00;99.90;;;;;;4940931;29;20233;-79
2020/12/19 11:52:47;;;;;;;1.10;0.70;;;11.00;99.90;;;;;;4942797;29;20205;-77
2020/12/19 11:55:13;;;;;;;0.93;0.50;;;11.00;99.90;;;;;;4944814;29;20223;-77
2020/12/19 11:57:40;;;;;;;2.80;0.60;;;10.90;99.90;;;;;;4955161;29;20235;-76
2020/12/19 12:00:07;;;;;;;1.07;0.57;;;10.90;99.90;;;;;;4960999;29;20208;-76
2020/12/19 12:02:34;;;;;;;1.47;0.70;;;10.90;99.90;;;;;;4962315;29;20212;-77
2020/12/19 12:05:00;;;;;;;1.77;0.80;;;11.00;99.90;;;;;;4960005;29;20210;-82
2020/12/19 12:07:26;;;;;;;2.10;0.90;;;11.00;99.90;;;;;;4948532;29;20229;-76
2020/12/19 12:09:53;;;;;;;2.17;0.80;;;11.00;99.90;;;;;;4943206;29;20223;-76
2020/12/19 12:12:19;;;;;;;1.23;0.70;;;11.00;99.90;;;;;;4942915;29;20240;-77
2020/12/19 12:14:45;;;;;;;2.00;1.00;;;11.00;99.90;;;;;;4947970;29;20208;-76
2020/12/19 12:17:13;;;;;;;1.47;0.90;;;11.00;99.90;;;;;;4941734;29;20248;-73
2020/12/19 12:19:39;;;;;;;1.60;1.30;;;11.00;99.90;;;;;;4936660;29;20209;-73
2020/12/19 12:22:05;;;;;;;2.37;0.97;;;11.00;99.90;;;;;;4936696;29;20221;-72
2020/12/19 12:24:32;;;;;;;1.70;1.00;;;11.00;99.90;;;;;;4937288;29;20205;-74
2020/12/19 12:26:58;;;;;;;2.33;0.90;;;11.10;99.90;;;;;;4936543;29;20233;-72
2020/12/19 12:29:24;;;;;;;2.33;0.97;;;11.10;99.90;;;;;;4936703;29;20204;-73
2020/12/19 12:31:51;;;;;;;3.43;0.93;;;11.20;99.90;;;;;;4936468;29;20684;-74
2020/12/19 12:34:18;;;;;;;1.60;0.73;;;11.30;99.90;;;;;;4936825;29;20220;-73
2020/12/19 12:36:44;;;;;;;4.43;1.30;;;11.30;99.90;;;;;;4936927;29;20216;-73
2020/12/19 12:39:10;;;;;;;1.87;0.90;;;11.30;99.90;;;;;;4936456;29;20208;-74
2020/12/19 12:41:37;;;;;;;1.30;0.97;;;11.30;99.90;;;;;;4936569;29;20212;-73
2020/12/19 12:44:03;;;;;;;3.13;0.80;;;11.30;99.90;;;;;;4936262;29;20699;-73
2020/12/19 12:46:30;;;;;;;2.40;1.00;;;11.40;99.90;;;;;;4936143;29;20213;-73
2020/12/19 12:48:56;;;;;;;1.57;0.70;;;11.40;99.90;;;;;;4936161;29;20216;-74
2020/12/19 12:51:23;;;;;;;1.43;1.10;;;11.50;99.90;;;;;;4935499;29;20248;-74
2020/12/19 12:53:50;;;;;;;4.00;1.20;;;11.50;99.90;;;;;;4935919;29;20219;-73
2020/12/19 12:56:21;;;;;;;4.23;1.07;;;11.50;99.90;;;;;;4935975;29;20213;-74
2020/12/19 12:58:47;;;;;;;1.93;1.17;;;11.50;99.90;;;;;;4935896;29;20284;-75
2020/12/19 13:01:13;;;;;;;2.10;1.17;;;11.60;99.90;;;;;;4935424;29;20208;-73
2020/12/19 13:03:39;;;;;;;1.30;0.80;;;11.60;99.90;;;;;;4934516;29;20265;-73
2020/12/19 13:06:06;;;;;;;2.00;0.80;;;11.70;99.90;;;;;;4932678;29;20205;-78
2020/12/19 13:08:34;;;;;;;1.57;0.70;;;11.80;99.90;;;;;;4945290;29;20565;-74
2020/12/19 13:11:00;;;;;;;0.70;0.67;;;11.90;99.90;;;;;;4939639;29;20239;-75
2020/12/19 13:13:26;;;;;;;2.13;0.70;;;11.80;99.90;;;;;;4952686;29;20219;-75
2020/12/19 13:15:52;;;;;;;1.37;0.80;;;11.90;99.90;;;;;;4948511;29;20205;-74
2020/12/19 13:18:19;;;;;;;1.40;0.80;;;11.80;99.90;;;;;;4934039;29;20228;-74
2020/12/19 13:20:45;;;;;;;2.80;1.00;;;11.80;99.90;;;;;;4933248;29;20580;-72
2020/12/19 13:23:12;;;;;;;1.57;0.70;;;11.80;99.90;;;;;;4933924;29;20208;-74
2020/12/19 13:25:39;;;;;;;2.13;0.90;;;11.70;99.90;;;;;;4934377;29;20556;-80
2020/12/19 13:28:05;;;;;;;3.00;1.03;;;11.60;99.90;;;;;;4933505;29;20241;-73
2020/12/19 13:30:31;;;;;;;1.23;0.80;;;11.60;99.90;;;;;;4935010;29;20236;-81
2020/12/19 13:32:58;;;;;;;1.17;0.63;;;11.50;99.90;;;;;;4934444;29;20209;-77
2020/12/19 13:35:24;;;;;;;2.00;1.10;;;11.30;99.90;;;;;;4931997;29;20209;-75
2020/12/19 13:37:51;;;;;;;2.27;0.83;;;11.20;99.90;;;;;;4934453;29;20315;-83
2020/12/19 13:40:17;;;;;;;1.07;0.60;;;11.20;99.90;;;;;;4936514;29;20565;-78
2020/12/19 13:42:44;;;;;;;1.77;0.90;;;11.10;99.90;;;;;;4939141;29;20220;-78
2020/12/19 13:45:11;;;;;;;2.37;1.00;;;11.20;99.90;;;;;;4940021;29;20212;-73
2020/12/19 13:47:38;;;;;;;0.90;0.70;;;11.30;99.90;;;;;;4934942;29;20225;-80
2020/12/19 13:50:05;;;;;;;1.20;0.80;;;11.30;99.90;;;;;;4933640;29;20216;-82
2020/12/19 13:52:31;;;;;;;1.47;0.80;;;11.20;99.90;;;;;;4937165;29;20239;-75
2020/12/19 13:54:57;;;;;;;2.50;0.87;;;11.10;99.90;;;;;;4953147;29;20212;-82
2020/12/19 13:57:24;;;;;;;1.30;0.90;;;11.10;99.90;;;;;;4935642;29;20735;-82
2020/12/19 13:59:51;;;;;;;2.30;1.20;;;11.10;99.90;;;;;;4934426;29;20256;-77
2020/12/19 14:02:17;;;;;;;1.83;0.97;;;11.10;99.90;;;;;;4933997;29;20216;-74
2020/12/19 14:04:44;;;;;;;3.93;1.00;;;11.20;99.90;;;;;;4933971;29;20209;-77
2020/12/19 14:07:10;;;;;;;1.70;1.07;;;11.20;99.90;;;;;;4933870;29;20237;-76
2020/12/19 14:09:36;;;;;;;1.23;0.97;;;11.20;99.90;;;;;;4933991;29;20204;-79
2020/12/19 14:12:03;;;;;;;1.97;1.00;;;11.30;99.90;;;;;;4933645;29;20252;-80
2020/12/19 14:14:30;;;;;;;1.20;0.90;;;11.30;99.90;;;;;;4935165;29;20216;-78
2020/12/19 14:17:01;;;;;;;1.77;1.17;;;11.30;99.90;;;;;;4938314;29;20212;-82
2020/12/19 14:19:27;;;;;;;2.67;0.83;;;11.30;99.90;;;;;;4936994;29;20213;-75
2020/12/19 14:21:53;;;;;;;3.50;0.90;;;11.30;99.90;;;;;;4937570;29;20227;-77
2020/12/19 14:24:19;;;;;;;1.90;1.07;;;11.30;99.90;;;;;;4941631;29;20686;-79
2020/12/19 14:26:46;;;;;;;1.97;1.13;;;11.30;99.90;;;;;;4950598;29;20499;-76
2020/12/19 14:29:12;;;;;;;3.43;0.90;;;11.30;99.90;;;;;;4956471;29;20215;-75
2020/12/19 14:31:38;;;;;;;1.37;0.97;;;11.40;99.90;;;;;;4944476;29;20750;-79
2020/12/19 14:34:06;;;;;;;2.50;1.17;;;11.40;99.90;;;;;;4937691;29;20216;-79
2020/12/19 14:36:32;;;;;;;1.97;1.00;;;11.30;99.90;;;;;;4937071;29;20974;-80
2020/12/19 14:38:58;;;;;;;1.27;1.00;;;11.40;99.90;;;;;;4937797;29;20212;-79
2020/12/19 14:41:25;;;;;;;1.67;1.07;;;11.40;99.90;;;;;;4936784;29;20212;-73
2020/12/19 14:43:52;;;;;;;1.73;1.10;;;11.60;99.90;;;;;;4936728;29;20732;-77
2020/12/19 14:46:19;;;;;;;1.60;1.00;;;11.60;99.90;;;;;;4936831;29;20208;-79
2020/12/19 14:48:46;;;;;;;2.77;1.10;;;11.50;99.90;;;;;;4937055;29;20225;-77
2020/12/19 14:51:15;;;;;;;2.27;0.90;;;11.40;99.90;;;;;;4937420;29;20229;-77
2020/12/19 14:53:41;;;;;;;1.60;1.00;;;11.40;99.90;;;;;;4938014;29;20220;-75
2020/12/19 14:56:08;;;;;;;3.47;1.20;;;11.40;99.90;;;;;;4938104;29;20212;-77
2020/12/19 14:58:35;;;;;;;2.43;1.30;;;11.50;99.90;;;;;;4938283;29;20240;-74
2020/12/19 15:01:01;;;;;;;2.43;1.00;;;11.40;99.90;;;;;;4937967;29;20251;-78
2020/12/19 15:03:28;;;;;;;2.00;1.10;;;11.40;99.90;;;;;;4937630;29;20209;-74
2020/12/19 15:05:54;;;;;;;1.60;1.20;;;11.40;99.90;;;;;;4938004;29;20209;-70
2020/12/19 15:08:21;;;;;;;2.27;1.00;;;11.40;99.90;;;;;;4937475;29;20696;-74
2020/12/19 15:10:47;;;;;;;2.27;1.03;;;11.40;99.90;;;;;;4937785;29;20327;-75
2020/12/19 15:13:14;;;;;;;1.40;0.90;;;11.50;99.90;;;;;;4937712;29;20223;-76
2020/12/19 15:15:40;;;;;;;1.87;0.93;;;11.50;99.90;;;;;;4937468;29;20216;-77
2020/12/19 15:18:06;;;;;;;1.17;0.83;;;11.70;99.90;;;;;;4938130;29;20314;-76
2020/12/19 15:20:32;;;;;;;0.87;0.67;;;11.60;99.90;;;;;;4937805;29;20224;-76
2020/12/19 15:22:59;;;;;;;2.20;1.10;;;11.60;99.90;;;;;;4938149;29;20656;-76
2020/12/19 15:25:26;;;;;;;2.27;1.03;;;11.60;99.90;;;;;;4937539;29;20212;-76
2020/12/19 15:27:52;;;;;;;1.97;0.80;;;11.60;99.90;;;;;;4937169;29;20233;-75
2020/12/19 15:30:18;;;;;;;1.80;0.87;;;11.60;99.90;;;;;;4937653;29;20220;-75
2020/12/19 15:32:46;;;;;;;1.73;0.90;;;11.60;99.90;;;;;;4937640;29;20239;-76
2020/12/19 15:35:12;;;;;;;4.57;0.93;;;11.50;99.90;;;;;;4937487;29;20212;-76
2020/12/19 15:37:38;;;;;;;2.30;1.10;;;11.60;99.90;;;;;;4937739;29;20239;-75
2020/12/19 15:40:05;;;;;;;1.97;0.97;;;11.50;99.90;;;;;;4937848;29;20208;-75
2020/12/19 15:42:32;;;;;;;2.00;1.30;;;11.40;99.90;;;;;;4937732;29;20213;-75
2020/12/19 15:44:58;;;;;;;1.60;1.07;;;11.40;99.90;;;;;;4937620;29;20205;-75
2020/12/19 15:47:24;;;;;;;1.53;1.13;;;11.30;99.90;;;;;;4937405;29;20317;-75
2020/12/19 15:49:50;;;;;;;3.80;1.30;;;11.20;99.90;;;;;;4937509;29;20679;-74
2020/12/19 15:52:17;;;;;;;2.27;1.20;;;11.10;99.90;;;;;;4937377;29;20314;-74
2020/12/19 15:54:43;;;;;;;1.80;1.07;;;11.10;99.90;;;;;;4937276;29;20213;-75
2020/12/19 15:57:09;;;;;;;4.57;1.20;;;11.20;99.90;;;;;;4937387;29;20228;-75
2020/12/19 15:59:36;;;;;;;2.50;1.17;;;11.20;99.90;;;;;;4937279;29;20216;-76
2020/12/19 16:02:03;;;;;;;2.03;0.90;;;11.20;99.90;;;;;;4937255;29;20307;-74
2020/12/19 16:04:29;;;;;;;2.67;1.30;;;11.30;99.90;;;;;;4937039;29;20209;-75
2020/12/19 16:06:55;;;;;;;2.53;1.30;;;11.30;99.90;;;;;;4936914;29;20229;-74
2020/12/19 16:09:21;;;;;;;2.17;0.97;;;11.40;99.90;;;;;;4937197;29;20209;-74
2020/12/19 16:11:53;;;;;;;1.63;0.90;;;11.40;99.90;;;;;;4936860;29;20592;-74
2020/12/19 16:14:19;;;;;;;2.50;1.43;;;11.40;99.90;;;;;;4937248;29;20213;-75
2020/12/19 16:16:47;;;;;;;1.27;0.97;;;11.40;99.90;;;;;;4936826;29;20208;-75
2020/12/19 16:19:13;;;;;;;1.73;1.10;;;11.40;99.90;;;;;;4936893;29;20220;-74
2020/12/19 16:21:40;;;;;;;2.10;1.00;;;11.40;99.90;;;;;;4936603;29;20272;-75
2020/12/19 16:24:07;;;;;;;3.13;1.70;;;11.50;99.90;;;;;;4936705;29;20549;-74
2020/12/19 16:26:34;;;;;;;2.60;0.97;;;11.50;99.90;;;;;;4937040;29;20235;-76
2020/12/19 16:29:01;;;;;;;1.83;0.90;;;11.50;99.90;;;;;;4936661;29;20211;-74
2020/12/19 16:31:34;;;;;;;2.73;1.30;;;11.40;99.90;;;;;;4936568;29;20239;-74
2020/12/19 16:34:01;;;;;;;1.83;1.00;;;11.40;99.90;;;;;;4937017;29;20204;-74
2020/12/19 16:36:29;;;;;;;2.40;1.37;;;11.40;99.90;;;;;;4936761;29;20216;-74
2020/12/19 16:38:56;;;;;;;2.47;1.20;;;11.40;99.90;;;;;;4936671;29;20224;-74
2020/12/19 16:41:22;;;;;;;1.97;1.20;;;11.40;99.90;;;;;;4936661;29;20219;-75
2020/12/19 16:43:51;;;;;;;1.47;0.90;;;11.40;99.90;;;;;;4936358;29;20676;-75
2020/12/19 16:46:25;;;;;;;2.73;1.30;;;11.30;99.90;;;;;;4936721;29;20365;-76
2020/12/19 16:48:51;;;;;;;3.43;1.00;;;11.30;99.90;;;;;;4936763;29;20236;-77
2020/12/19 16:51:26;;;;;;;2.10;0.97;;;11.30;99.90;;;;;;4936086;29;20252;-77
2020/12/19 16:53:53;;;;;;;2.07;1.00;;;11.30;99.90;;;;;;4936472;29;20208;-76
2020/12/19 16:56:19;;;;;;;6.30;1.20;;;11.40;99.90;;;;;;4936317;29;20244;-76
2020/12/19 16:58:46;;;;;;;2.83;1.13;;;11.40;99.90;;;;;;4936046;29;20232;-76
2020/12/19 17:01:12;;;;;;;2.43;1.20;;;11.40;99.90;;;;;;4936816;29;20217;-77
2020/12/19 17:03:39;;;;;;;1.27;0.83;;;11.40;99.90;;;;;;4936364;29;20205;-77
2020/12/19 17:06:05;;;;;;;1.07;0.80;;;11.40;99.90;;;;;;4936252;29;20213;-76
2020/12/19 17:08:32;;;;;;;3.03;1.03;;;11.40;99.90;;;;;;4935846;29;20711;-75
2020/12/19 17:10:58;;;;;;;3.50;1.20;;;11.10;99.90;;;;;;4935743;29;20258;-76
2020/12/19 17:13:25;;;;;;;1.80;1.20;;;11.10;99.90;;;;;;4936141;29;20589;-77
2020/12/19 17:15:51;;;;;;;5.10;1.13;;;11.10;99.90;;;;;;4936133;29;20573;-76
2020/12/19 17:18:17;;;;;;;1.93;1.23;;;11.10;99.90;;;;;;4935687;29;20715;-76
2020/12/19 17:20:43;;;;;;;3.33;1.17;;;11.10;99.90;;;;;;4936143;29;20593;-76
2020/12/19 17:23:10;;;;;;;1.87;1.10;;;11.00;99.90;;;;;;4935879;29;20213;-77
2020/12/19 17:25:37;;;;;;;2.00;0.90;;;11.10;99.90;;;;;;4935842;29;20213;-77
2020/12/19 17:28:03;;;;;;;4.23;1.00;;;11.00;99.90;;;;;;4935891;29;20225;-77
2020/12/19 17:30:29;;;;;;;2.37;0.90;;;10.90;99.90;;;;;;4935911;29;20220;-76
2020/12/19 17:32:55;;;;;;;2.20;1.03;;;10.90;99.90;;;;;;4935916;29;20213;-77
2020/12/19 17:35:22;;;;;;;1.80;1.23;;;10.90;99.90;;;;;;4935988;29;20211;-77
2020/12/19 17:37:49;;;;;;;2.70;1.13;;;10.80;99.90;;;;;;4935648;29;20316;-77
2020/12/19 17:40:15;;;;;;;2.53;1.20;;;10.80;99.90;;;;;;4935382;29;20209;-77
2020/12/19 17:42:42;;;;;;;1.67;1.20;;;10.80;99.90;;;;;;4935926;29;20247;-77
2020/12/19 17:45:09;;;;;;;4.43;1.40;;;10.80;99.90;;;;;;4936007;29;20215;-75
2020/12/19 17:47:36;;;;;;;2.87;1.60;;;10.70;99.90;;;;;;4935822;29;20288;-76
2020/12/19 17:50:03;;;;;;;3.73;1.77;;;10.70;99.90;;;;;;4937680;29;20300;-74
2020/12/19 17:52:29;;;;;;;2.90;1.60;;;10.60;99.90;;;;;;4939453;29;20237;-77
2020/12/19 17:54:55;;;;;;;4.17;1.60;;;10.70;99.90;;;;;;4939188;29;20221;-75
2020/12/19 17:57:22;;;;;;;4.50;1.50;;;10.60;99.90;;;;;;4939303;29;20232;-77
2020/12/19 17:59:49;;;;;;;4.70;1.53;;;10.60;99.90;;;;;;4939277;29;20255;-77
2020/12/19 18:02:15;;;;;;;3.90;1.60;;;10.60;99.90;;;;;;4939446;29;20236;-76
2020/12/19 18:04:41;;;;;;;3.80;2.10;;;10.70;99.90;;;;;;4939357;29;20568;-76
2020/12/19 18:07:07;;;;;;;6.17;2.20;;;10.60;99.90;;;;;;4938967;29;20228;-77
2020/12/19 18:09:33;;;;;;;4.60;2.90;;;10.50;99.90;;;;;;4939255;29;20232;-77
2020/12/19 18:12:00;;;;;;;3.83;2.40;;;10.40;99.90;;;;;;4939199;29;20240;-77
2020/12/19 18:14:26;;;;;;;2.93;1.73;;;10.40;99.90;;;;;;4939015;29;20279;-77
2020/12/19 18:16:53;;;;;;;4.50;2.20;;;10.30;99.90;;;;;;4938953;29;20224;-77
2020/12/19 18:19:19;;;;;;;4.20;2.33;;;10.30;99.90;;;;;;4938951;29;20213;-76
2020/12/19 18:21:51;;;;;;;4.27;1.47;;;10.30;99.90;;;;;;4938712;29;20216;-77
2020/12/19 18:24:17;;;;;;;9.60;6.40;;;10.20;99.90;;;;;;4939075;29;20213;-77
2020/12/19 18:26:45;;;;;;;6.57;2.87;;;10.20;99.90;;;;;;4938857;29;20205;-77
2020/12/19 18:29:11;;;;;;;4.90;2.33;;;10.20;99.90;;;;;;4938913;29;20212;-77
2020/12/19 18:31:38;;;;;;;3.50;1.60;;;10.20;99.90;;;;;;4938950;29;20259;-77
2020/12/19 18:34:05;;;;;;;4.17;1.83;;;10.20;99.90;;;;;;4938614;29;20264;-76
2020/12/19 18:36:31;;;;;;;4.33;2.67;;;10.10;99.90;;;;;;4938180;29;20215;-74
2020/12/19 18:38:57;;;;;;;5.30;2.60;;;10.10;99.90;;;;;;4938619;29;20216;-75
2020/12/19 18:41:23;;;;;;;8.07;2.20;;;10.00;99.90;;;;;;4938631;29;20212;-75
2020/12/19 18:43:49;;;;;;;6.33;2.37;;;10.00;99.90;;;;;;4938317;29;20743;-76
2020/12/19 18:46:16;;;;;;;4.33;1.80;;;10.00;99.90;;;;;;4938495;29;20216;-74
2020/12/19 18:48:42;;;;;;;5.77;3.30;;;10.00;99.90;;;;;;4938199;29;20284;-75
2020/12/19 18:51:09;;;;;;;7.57;3.00;;;10.00;99.90;;;;;;4938455;29;20296;-74
2020/12/19 18:53:35;;;;;;;15.83;5.77;;;10.00;99.90;;;;;;4938469;29;20223;-74
2020/12/19 18:56:01;;;;;;;9.57;3.13;;;10.00;99.90;;;;;;4938345;29;20209;-75
2020/12/19 18:58:28;;;;;;;8.80;3.30;;;10.10;99.90;;;;;;4938164;29;20233;-74
2020/12/19 19:00:54;;;;;;;10.27;3.27;;;10.00;99.90;;;;;;4938193;29;20220;-74
2020/12/19 19:03:20;;;;;;;8.50;2.90;;;9.90;99.90;;;;;;4938359;29;20244;-75
2020/12/19 19:05:46;;;;;;;7.23;2.93;;;9.90;99.90;;;;;;4938226;29;20208;-74
2020/12/19 19:08:14;;;;;;;5.47;2.77;;;9.90;99.90;;;;;;4937951;29;20265;-74
2020/12/19 19:10:40;;;;;;;4.63;2.00;;;9.80;99.90;;;;;;4937913;29;20212;-74
2020/12/19 19:13:06;;;;;;;8.43;2.90;;;9.90;99.90;;;;;;4937983;29;20276;-77
2020/12/19 19:15:32;;;;;;;2.93;1.60;;;9.90;99.90;;;;;;4938326;29;20589;-74
2020/12/19 19:17:59;;;;;;;3.20;2.23;;;9.90;99.90;;;;;;4938113;29;20236;-76
2020/12/19 19:20:25;;;;;;;14.77;4.17;;;9.80;99.90;;;;;;4937947;29;20224;-75
2020/12/19 19:22:51;;;;;;;7.03;3.10;;;9.90;99.90;;;;;;4937977;29;20216;-74
2020/12/19 19:25:19;;;;;;;5.53;2.40;;;9.90;99.90;;;;;;4937914;29;20213;-74
2020/12/19 19:27:46;;;;;;;4.07;2.10;;;10.00;99.90;;;;;;4937714;29;20244;-76
2020/12/19 19:30:12;;;;;;;4.73;2.00;;;9.90;99.90;;;;;;4937556;29;20212;-74
2020/12/19 19:32:38;;;;;;;9.50;3.00;;;9.90;99.90;;;;;;4937427;29;20635;-75
2020/12/19 19:35:05;;;;;;;5.37;2.30;;;9.90;99.90;;;;;;4937957;29;20208;-75
2020/12/19 19:37:31;;;;;;;5.20;2.40;;;9.80;99.90;;;;;;4937840;29;20283;-77
2020/12/19 19:39:58;;;;;;;2.73;1.70;;;9.90;99.90;;;;;;4937915;29;20240;-75
2020/12/19 19:42:25;;;;;;;4.87;1.90;;;9.90;99.90;;;;;;4937661;29;20205;-74
2020/12/19 19:44:51;;;;;;;3.17;1.80;;;9.90;99.90;;;;;;4937475;29;20208;-74
2020/12/19 19:47:17;;;;;;;7.23;1.60;;;9.80;99.90;;;;;;4937277;29;20236;-73
2020/12/19 19:49:44;;;;;;;4.10;1.60;;;9.70;99.90;;;;;;4937731;29;20240;-73
2020/12/19 19:52:11;;;;;;;7.60;1.67;;;9.70;99.90;;;;;;4937392;29;20237;-74
2020/12/19 19:54:37;;;;;;;3.27;1.60;;;9.70;99.90;;;;;;4937193;29;20256;-74
2020/12/19 19:57:03;;;;;;;2.70;1.50;;;9.80;99.90;;;;;;4953841;29;20228;-73
2020/12/19 19:59:30;;;;;;;2.97;1.70;;;9.80;99.90;;;;;;4942144;29;20325;-73
2020/12/19 20:01:56;;;;;;;3.80;1.90;;;9.80;99.90;;;;;;4934628;29;20209;-73
2020/12/19 20:04:23;;;;;;;6.57;1.93;;;9.80;99.90;;;;;;4934231;29;20208;-73
2020/12/19 20:06:54;;;;;;;4.07;1.90;;;9.70;99.90;;;;;;4936330;29;20215;-73
2020/12/19 20:09:21;;;;;;;3.67;1.80;;;9.70;99.90;;;;;;4936903;29;20209;-74
2020/12/19 20:11:47;;;;;;;4.73;1.90;;;9.70;99.90;;;;;;4936443;29;20237;-77
2020/12/19 20:14:13;;;;;;;2.97;1.57;;;9.80;99.90;;;;;;4936682;29;20236;-77
2020/12/19 20:16:43;;;;;;;4.57;1.60;;;9.70;99.90;;;;;;4936686;29;20213;-74
2020/12/19 20:19:10;;;;;;;5.43;2.00;;;9.70;99.90;;;;;;4936808;29;20672;-73
2020/12/19 20:21:41;;;;;;;5.43;1.57;;;9.80;99.90;;;;;;4936548;29;20227;-74
2020/12/19 20:24:07;;;;;;;2.27;1.77;;;9.90;99.90;;;;;;4936609;29;20208;-73
2020/12/19 20:26:33;;;;;;;5.97;1.70;;;9.90;99.90;;;;;;4936600;29;20287;-74
2020/12/19 20:29:03;;;;;;;2.77;1.80;;;9.90;99.90;;;;;;4936401;29;20209;-75
2020/12/19 20:31:30;;;;;;;2.87;1.57;;;9.90;99.90;;;;;;4936682;29;20241;-74
2020/12/19 20:33:58;;;;;;;6.53;1.93;;;9.90;99.90;;;;;;4936714;29;20240;-74
2020/12/19 20:36:25;;;;;;;2.97;1.40;;;9.80;99.90;;;;;;4936664;29;20223;-74
2020/12/19 20:38:52;;;;;;;4.47;1.70;;;9.80;99.90;;;;;;4936546;29;20713;-74
2020/12/19 20:41:19;;;;;;;3.13;1.57;;;9.80;99.90;;;;;;4936400;29;20219;-77
2020/12/19 20:43:46;;;;;;;2.93;1.57;;;9.80;99.90;;;;;;4936388;29;20208;-74
2020/12/19 20:46:12;;;;;;;4.17;1.90;;;9.80;99.90;;;;;;4936393;29;20205;-74
2020/12/19 20:48:38;;;;;;;5.03;1.60;;;9.90;99.90;;;;;;4936418;29;20236;-76
2020/12/19 20:51:05;;;;;;;3.27;1.33;;;9.90;99.90;;;;;;4936101;29;20297;-75
2020/12/19 20:53:32;;;;;;;2.30;1.37;;;9.90;99.90;;;;;;4936322;29;20209;-74
2020/12/19 20:55:58;;;;;;;4.23;1.97;;;9.90;99.90;;;;;;4936087;29;20576;-75
2020/12/19 20:58:25;;;;;;;3.43;1.47;;;9.90;99.90;;;;;;4936297;29;20592;-75
2020/12/19 21:00:51;;;;;;;3.23;1.50;;;10.00;99.90;;;;;;4935839;29;20236;-77
2020/12/19 21:03:17;;;;;;;2.03;1.10;;;10.00;99.90;;;;;;4935947;29;20212;-74
2020/12/19 21:05:46;;;;;;;3.53;1.50;;;10.00;99.90;;;;;;4936305;29;20263;-74
2020/12/19 21:08:14;;;;;;;1.87;1.10;;;9.90;99.90;;;;;;4935784;29;20596;-74